createdAt,value
2022-08-26T00:03:46.280Z,99934.44
2022-08-26T00:08:48.844Z,99936.47
2022-08-26T00:13:51.084Z,99973.03
2022-08-26T00:18:56.559Z,99929.72
2022-08-26T00:23:58.751Z,99883.81
2022-08-26T00:29:01.099Z,99967.56
2022-08-26T00:34:03.347Z,99970.19
2022-08-26T00:39:07.675Z,99920.00
2022-08-26T00:44:11.336Z,99936.69
2022-08-26T00:49:17.492Z,99943.59
2022-08-26T00:54:22.169Z,99991.16
2022-08-26T00:59:26.282Z,99973.47
2022-08-26T01:04:28.950Z,99908.25
2022-08-26T01:09:31.960Z,99957.91
2022-08-26T01:14:36.762Z,99898.03
2022-08-26T01:19:44.396Z,99951.09
2022-08-26T01:24:47.578Z,99965.44
2022-08-26T01:29:51.294Z,99918.50
2022-08-26T01:34:53.608Z,99828.97
2022-08-26T01:39:57.333Z,99944.91
2022-08-26T01:45:09.047Z,99989.22
2022-08-26T01:50:17.920Z,99988.56
2022-08-26T01:55:32.999Z,99968.81
2022-08-26T02:00:36.670Z,99951.31
2022-08-26T02:05:39.022Z,99931.41
2022-08-26T02:10:42.404Z,99971.47
2022-08-26T02:15:45.914Z,100005.53
2022-08-26T02:20:51.716Z,100003.81
2022-08-26T02:26:04.744Z,99998.47
2022-08-26T02:31:07.992Z,99968.06
2022-08-26T02:36:10.551Z,99962.91
2022-08-26T02:41:14.409Z,99937.72
2022-08-26T02:46:21.468Z,99952.47
2022-08-26T02:51:32.344Z,99928.09
2022-08-26T02:56:36.463Z,99936.75
2022-08-26T03:01:40.719Z,99953.31
2022-08-26T03:06:43.049Z,99969.00
2022-08-26T03:11:49.206Z,99952.47
2022-08-26T03:16:54.139Z,99944.53
2022-08-26T03:21:57.909Z,99931.41
2022-08-26T03:27:02.098Z,99892.28
2022-08-26T03:32:10.060Z,100000.00
2022-08-26T03:37:12.908Z,99962.38
2022-08-26T03:42:15.186Z,99987.53
2022-08-26T03:47:18.292Z,99933.41
2022-08-26T03:52:20.470Z,99975.06
2022-08-26T03:57:23.521Z,99912.94
2022-08-26T04:02:26.121Z,99977.84
2022-08-26T04:07:28.419Z,99977.84
2022-08-26T04:12:34.615Z,99990.72
2022-08-26T04:17:36.986Z,99980.03
2022-08-26T04:22:39.274Z,100002.63
2022-08-26T04:27:42.852Z,100002.44
2022-08-26T04:32:45.803Z,99968.44
2022-08-26T04:37:49.583Z,99960.47
2022-08-26T04:42:51.846Z,99970.69
2022-08-26T04:47:57.266Z,99900.16
2022-08-26T04:53:00.129Z,100020.03
2022-08-26T04:58:02.411Z,99997.19
2022-08-26T05:03:04.642Z,99960.38
2022-08-26T05:08:08.631Z,99974.78
2022-08-26T05:13:15.741Z,99997.91
2022-08-26T05:18:21.419Z,99996.34
2022-08-26T05:23:25.491Z,99868.09
2022-08-26T05:28:29.942Z,99949.22
2022-08-26T05:33:32.197Z,99939.03
2022-08-26T05:38:35.938Z,99947.19
2022-08-26T05:43:38.627Z,99977.25
2022-08-26T05:48:44.216Z,99972.34
2022-08-26T05:53:54.828Z,99925.25
2022-08-26T05:58:58.413Z,99978.47
2022-08-26T06:04:03.312Z,100036.22
2022-08-26T06:09:06.612Z,100001.59
2022-08-26T06:14:12.082Z,100018.75
2022-08-26T06:19:15.834Z,100017.00
2022-08-26T06:24:36.656Z,99938.06
2022-08-26T06:29:39.243Z,99999.50
2022-08-26T06:34:44.855Z,99771.66
2022-08-26T06:39:47.254Z,99962.22
2022-08-26T06:44:53.497Z,99991.88
2022-08-26T06:49:55.816Z,99997.00
2022-08-26T06:54:58.789Z,99990.66
2022-08-26T07:00:01.231Z,99981.03
2022-08-26T07:05:08.248Z,99992.19
2022-08-26T07:10:11.401Z,99851.97
2022-08-26T07:15:13.703Z,99971.47
2022-08-26T07:20:18.275Z,99981.84
2022-08-26T07:25:21.748Z,99955.97
2022-08-26T07:30:27.393Z,99971.13
2022-08-26T07:35:29.723Z,100008.97
2022-08-26T07:40:34.168Z,100019.31
2022-08-26T07:45:36.485Z,99948.94
2022-08-26T07:50:49.386Z,99988.72
2022-08-26T07:55:52.814Z,100004.78
2022-08-26T08:00:56.060Z,100004.81
2022-08-26T08:05:58.474Z,99955.31
2022-08-26T08:11:00.785Z,99955.78
2022-08-26T08:16:03.402Z,99906.06
2022-08-26T08:21:21.276Z,99974.19
2022-08-26T08:26:25.729Z,99952.94
2022-08-26T08:31:56.260Z,100004.84
2022-08-26T08:36:54.288Z,99977.69
2022-08-26T08:41:56.507Z,99989.72
2022-08-26T08:47:04.557Z,99925.88
2022-08-26T08:52:20.495Z,99770.38
2022-08-26T08:57:30.707Z,99989.03
2022-08-26T09:02:39.448Z,99655.09
2022-08-26T09:07:49.668Z,99852.59
2022-08-26T09:12:53.345Z,99882.16
2022-08-26T09:18:27.117Z,99946.28
2022-08-26T09:23:30.952Z,99952.56
2022-08-26T09:28:33.177Z,99951.59
2022-08-26T09:33:35.997Z,99935.00
2022-08-26T09:38:38.416Z,99891.09
2022-08-26T09:43:41.850Z,99971.00
2022-08-26T09:48:44.283Z,99939.78
2022-08-26T09:54:01.169Z,99952.47
2022-08-26T09:59:06.479Z,99954.91
2022-08-26T10:04:20.221Z,99954.69
2022-08-26T10:09:24.213Z,99909.66
2022-08-26T10:19:56.744Z,99933.63
2022-08-26T10:25:04.306Z,99946.81
2022-08-26T10:30:11.825Z,99943.50
2022-08-26T10:35:16.312Z,99933.06
2022-08-26T10:40:53.135Z,99925.59
2022-08-26T10:46:01.286Z,99872.88
2022-08-26T10:51:04.726Z,99894.44
2022-08-26T10:56:18.551Z,99920.59
2022-08-26T11:01:47.131Z,99911.06
2022-08-26T11:07:31.713Z,99917.81
2022-08-26T11:12:37.548Z,99910.88
2022-08-26T11:18:10.095Z,99887.25
2022-08-26T11:23:25.221Z,99904.56
2022-08-26T11:28:46.086Z,99848.75
2022-08-26T11:34:00.273Z,99863.75
2022-08-26T11:39:29.003Z,99892.72
2022-08-26T11:44:41.906Z,99844.03
2022-08-26T11:50:16.611Z,99864.03
2022-08-26T11:55:19.167Z,99860.41
2022-08-26T12:00:25.066Z,99838.53
2022-08-26T12:05:31.416Z,99882.25
2022-08-26T12:10:34.745Z,99850.34
2022-08-26T12:15:36.923Z,99833.16
2022-08-26T12:20:46.455Z,99849.06
2022-08-26T12:25:50.904Z,99849.06
2022-08-26T12:31:04.049Z,99863.28
2022-08-26T12:36:07.214Z,99783.69
2022-08-26T12:41:09.535Z,99847.16
2022-08-26T12:46:16.124Z,99867.06
2022-08-26T12:51:30.526Z,99828.53
2022-08-26T12:56:39.741Z,99850.09
2022-08-26T13:01:44.609Z,99857.34
2022-08-26T13:06:48.125Z,99802.91
2022-08-26T13:11:53.142Z,99843.69
2022-08-26T13:16:55.457Z,99771.66
2022-08-26T13:22:01.833Z,99840.53
2022-08-26T13:27:05.367Z,99806.31
2022-08-26T13:32:08.242Z,99802.03
2022-08-26T13:37:11.449Z,99756.81
2022-08-26T13:42:16.859Z,99774.78
2022-08-26T13:47:20.780Z,99798.97
2022-08-26T13:52:30.796Z,99772.59
2022-08-26T13:57:33.467Z,99736.84
2022-08-26T14:02:35.760Z,99820.69
2022-08-26T14:07:37.997Z,99810.63
2022-08-26T14:12:40.341Z,99779.75
2022-08-26T14:17:42.880Z,99804.44
2022-08-26T14:23:03.484Z,99808.03
2022-08-26T14:28:08.032Z,99786.97
2022-08-26T14:33:14.731Z,99801.94
2022-08-26T14:38:17.600Z,99813.59
2022-08-26T14:43:19.835Z,99779.69
2022-08-26T14:48:22.082Z,99804.44
2022-08-26T14:53:42.924Z,99796.31
2022-08-26T14:58:45.235Z,99783.34
2022-08-26T15:03:47.559Z,99746.59
2022-08-26T15:08:49.930Z,99759.09
2022-08-26T15:13:53.265Z,99795.63
2022-08-26T15:18:56.252Z,99812.00
2022-08-26T15:23:59.631Z,99776.84
2022-08-26T15:29:05.057Z,99729.13
2022-08-26T15:34:16.058Z,99817.69
2022-08-26T15:39:19.329Z,99776.47
2022-08-26T15:44:21.845Z,99759.47
2022-08-26T15:49:24.184Z,99778.31
2022-08-26T15:54:29.034Z,99826.63
2022-08-26T15:59:31.835Z,99761.19
2022-08-26T16:04:34.147Z,99838.78
2022-08-26T16:09:36.573Z,99825.06
2022-08-26T16:14:39.168Z,99825.25
2022-08-26T16:19:44.428Z,99772.97
2022-08-26T16:24:46.748Z,99833.09
2022-08-26T16:29:49.001Z,99808.34
2022-08-26T16:34:56.626Z,99831.72
2022-08-26T16:39:59.459Z,99845.22
2022-08-26T16:45:01.885Z,99758.31
2022-08-26T16:50:06.931Z,99865.03
2022-08-26T16:55:12.559Z,99813.66
2022-08-26T17:00:26.419Z,99848.13
2022-08-26T17:05:31.547Z,99844.91
2022-08-26T17:10:34.033Z,99807.84
2022-08-26T17:15:36.381Z,99818.31
2022-08-26T17:20:38.744Z,99815.81
2022-08-26T17:25:41.370Z,99808.72
2022-08-26T17:30:44.611Z,99800.91
2022-08-26T17:35:46.902Z,99796.28
2022-08-26T17:40:49.961Z,99873.22
2022-08-26T17:45:56.736Z,99807.84
2022-08-26T17:51:00.604Z,99852.66
2022-08-26T17:56:06.162Z,99863.59
2022-08-26T18:01:11.033Z,99864.94
2022-08-26T18:06:14.951Z,99860.34
2022-08-26T18:11:20.496Z,99852.72
2022-08-26T18:16:23.618Z,99821.28
2022-08-26T18:21:27.854Z,99827.56
2022-08-26T18:26:34.606Z,99808.31
2022-08-26T18:31:39.641Z,99845.72
2022-08-26T18:36:42.662Z,99835.41
2022-08-26T18:41:48.014Z,99795.63
2022-08-26T18:46:51.411Z,99885.44
2022-08-26T18:51:53.728Z,99835.53
2022-08-26T18:56:56.579Z,99848.25
2022-08-26T19:01:59.274Z,99878.16
2022-08-26T19:07:01.729Z,99882.00
2022-08-26T19:12:05.752Z,99852.19
2022-08-26T19:17:08.350Z,99837.13
2022-08-26T19:22:13.477Z,99892.72
2022-08-26T19:27:15.894Z,99870.59
2022-08-26T19:32:19.182Z,99881.47
2022-08-26T19:37:21.631Z,99878.28
2022-08-26T19:42:23.885Z,99879.72
2022-08-26T19:47:27.445Z,99874.41
2022-08-26T19:52:30.430Z,99868.66
2022-08-26T19:57:33.511Z,99928.13
2022-08-26T20:02:36.482Z,99897.47
2022-08-26T20:07:39.630Z,99873.31
2022-08-26T20:12:42.941Z,99905.78
2022-08-26T20:17:45.338Z,99929.84
2022-08-26T20:22:48.556Z,99906.69
2022-08-26T20:27:51.232Z,99940.94
2022-08-26T20:32:53.636Z,99832.75
2022-08-26T20:37:55.970Z,99877.50
2022-08-26T20:43:01.165Z,99927.34
2022-08-26T20:48:03.979Z,99891.19
2022-08-26T20:53:06.995Z,99922.75
2022-08-26T20:58:09.508Z,99897.19
2022-08-26T21:03:11.880Z,99905.16
2022-08-26T21:08:14.191Z,99893.22
2022-08-26T21:13:16.551Z,99896.81
2022-08-26T21:18:18.851Z,99917.16
2022-08-26T21:23:21.211Z,99889.81
2022-08-26T21:28:23.545Z,99822.38
2022-08-26T21:33:25.923Z,99912.97
2022-08-26T21:38:33.193Z,99944.22
2022-08-26T21:43:36.887Z,99934.50
2022-08-26T21:48:40.211Z,99949.75
2022-08-26T21:53:42.915Z,99932.50
2022-08-26T21:58:45.346Z,99952.47
2022-08-26T22:03:49.124Z,99926.53
2022-08-26T22:08:52.293Z,99919.13
2022-08-26T22:13:57.214Z,99953.97
2022-08-26T22:19:01.341Z,99911.63
2022-08-26T22:24:24.030Z,99949.19
2022-08-26T22:29:27.298Z,99938.94
2022-08-26T22:34:29.603Z,99944.13
2022-08-26T22:39:31.930Z,99917.44
2022-08-26T22:44:36.788Z,99941.00
2022-08-26T22:49:39.031Z,99873.44
2022-08-26T22:54:41.332Z,99929.56
2022-08-26T22:59:43.701Z,99905.91
2022-08-26T23:04:45.979Z,99942.72
2022-08-26T23:09:49.798Z,99889.00
2022-08-26T23:14:52.095Z,99948.38
2022-08-26T23:19:55.461Z,99938.06
2022-08-26T23:24:58.304Z,99924.31
2022-08-26T23:30:02.667Z,99921.84
2022-08-26T23:35:06.598Z,99887.47
2022-08-26T23:40:13.341Z,99928.50
2022-08-26T23:45:18.612Z,99919.72
2022-08-26T23:50:23.649Z,99911.28
2022-08-26T23:55:44.498Z,99882.69
